Time;durP1;ratioP1;P1;durP2;ratioP2;P2;SDS_P1;SDS_P2;PMS_P1;PMS_P2;Temp;Humidity;BMP_temperature;BMP_pressure;BME280_temperature;BME280_humidity;BME280_pressure;Samples;Min_cycle;Max_cycle;Signal;HPM_P1;HPM_P2
2023/12/14 00:00:29;;;;;;;20.98;6.45;;;-8.90;99.90;;;;;;4953558;28;20039;-79
2023/12/14 00:02:55;;;;;;;23.42;6.97;;;-8.90;99.80;;;;;;4953139;28;20035;-77
2023/12/14 00:05:21;;;;;;;15.73;4.43;;;-8.90;99.90;;;;;;4955311;28;20492;-80
2023/12/14 00:07:47;;;;;;;12.07;4.65;;;-8.90;99.90;;;;;;4957639;28;20039;-78
2023/12/14 00:10:12;;;;;;;18.17;6.55;;;-8.90;99.90;;;;;;4938995;29;20544;-80
2023/12/14 00:12:38;;;;;;;26.08;5.38;;;-8.90;99.80;;;;;;4955477;28;20543;-79
2023/12/14 00:15:06;;;;;;;25.92;6.78;;;-8.90;99.80;;;;;;4955526;28;20027;-80
2023/12/14 00:17:31;;;;;;;26.80;12.05;;;-8.90;99.80;;;;;;4955960;28;20122;-79
2023/12/14 00:19:57;;;;;;;30.95;6.93;;;-8.90;99.90;;;;;;4959412;28;20102;-80
2023/12/14 00:22:24;;;;;;;15.18;6.10;;;-8.90;99.90;;;;;;4951712;28;20023;-79
2023/12/14 00:24:50;;;;;;;19.50;7.13;;;-8.90;99.80;;;;;;4952295;28;20394;-79
2023/12/14 00:27:16;;;;;;;24.40;7.40;;;-8.90;99.70;;;;;;4960399;28;20027;-79
2023/12/14 00:29:41;;;;;;;13.60;7.90;;;-8.90;99.70;;;;;;4961049;28;20028;-79
2023/12/14 00:32:07;;;;;;;25.98;7.18;;;-8.90;99.70;;;;;;4956908;28;20047;-79
2023/12/14 00:34:33;;;;;;;25.42;6.05;;;-8.90;99.70;;;;;;4957494;28;20059;-79
2023/12/14 00:36:59;;;;;;;20.27;7.57;;;-8.90;99.70;;;;;;4957319;28;20524;-79
2023/12/14 00:39:25;;;;;;;18.30;5.47;;;-8.90;99.70;;;;;;4957694;28;20102;-78
2023/12/14 00:41:50;;;;;;;26.85;6.72;;;-8.90;99.60;;;;;;4956394;28;20085;-79
2023/12/14 00:44:16;;;;;;;19.00;5.88;;;-8.80;99.60;;;;;;4956753;28;20035;-79
2023/12/14 00:46:42;;;;;;;20.35;4.63;;;-8.80;99.60;;;;;;4957036;28;20037;-78
2023/12/14 00:49:08;;;;;;;13.00;4.57;;;-8.80;99.70;;;;;;4956311;29;20023;-79
2023/12/14 00:51:34;;;;;;;17.70;5.25;;;-8.80;99.70;;;;;;4955772;29;20070;-79
2023/12/14 00:54:00;;;;;;;25.65;8.35;;;-8.80;99.70;;;;;;4946781;28;20050;-80
2023/12/14 00:56:50;;;;;;;10.57;4.35;;;-8.80;99.70;;;;;;4958303;28;20071;-81
2023/12/14 00:59:16;;;;;;;19.73;6.03;;;-8.80;99.70;;;;;;4958091;29;20023;-79
2023/12/14 01:01:41;;;;;;;25.77;6.28;;;-8.80;99.70;;;;;;4957715;28;20374;-80
2023/12/14 01:04:08;;;;;;;20.15;6.22;;;-8.80;99.70;;;;;;4963106;28;20093;-80
2023/12/14 01:06:34;;;;;;;23.30;5.35;;;-8.80;99.80;;;;;;4964711;28;20023;-79
2023/12/14 01:09:00;;;;;;;17.48;7.15;;;-8.80;99.90;;;;;;4956152;28;20374;-80
2023/12/14 01:11:25;;;;;;;17.48;5.45;;;-8.90;99.90;;;;;;4957222;28;20038;-79
2023/12/14 01:13:51;;;;;;;20.85;5.03;;;-8.80;99.80;;;;;;4958341;28;20472;-80
2023/12/14 01:16:17;;;;;;;22.70;6.05;;;-8.80;99.80;;;;;;4956564;28;20448;-78
2023/12/14 01:18:43;;;;;;;32.47;11.27;;;-8.80;99.70;;;;;;4959061;28;20063;-81
2023/12/14 01:21:09;;;;;;;19.25;5.68;;;-8.80;99.60;;;;;;4956415;28;20024;-80
2023/12/14 01:23:34;;;;;;;22.15;6.07;;;-8.80;99.60;;;;;;4932701;29;20104;-81
2023/12/14 01:26:00;;;;;;;21.30;6.70;;;-8.80;99.60;;;;;;4956524;28;20388;-80
2023/12/14 01:28:26;;;;;;;27.40;6.78;;;-8.70;99.50;;;;;;4956553;28;20028;-80
2023/12/14 01:30:53;;;;;;;24.02;8.23;;;-8.80;99.40;;;;;;4957978;28;20043;-80
2023/12/14 01:33:19;;;;;;;24.25;6.60;;;-8.70;99.30;;;;;;4956223;28;20107;-79
2023/12/14 01:35:45;;;;;;;15.43;5.50;;;-8.70;99.20;;;;;;4956389;28;20027;-79
2023/12/14 01:38:11;;;;;;;16.60;6.07;;;-8.60;99.20;;;;;;4956007;28;20098;-78
2023/12/14 01:40:37;;;;;;;17.83;6.07;;;-8.60;99.20;;;;;;4956497;28;20189;-80
2023/12/14 01:43:12;;;;;;;20.85;7.22;;;-8.60;99.20;;;;;;4966701;28;20503;-79
2023/12/14 01:45:38;;;;;;;11.70;4.95;;;-8.60;99.10;;;;;;4960180;28;20026;-79
2023/12/14 01:48:05;;;;;;;31.90;6.82;;;-8.60;99.00;;;;;;4945897;29;20110;-81
2023/12/14 01:50:31;;;;;;;27.65;5.32;;;-8.60;98.90;;;;;;4964672;28;20031;-80
2023/12/14 01:52:57;;;;;;;11.98;4.93;;;-8.50;98.90;;;;;;4965094;28;20066;-80
2023/12/14 01:55:23;;;;;;;22.17;6.78;;;-8.50;99.00;;;;;;4965369;28;20062;-80
2023/12/14 01:57:49;;;;;;;24.88;6.32;;;-8.50;99.10;;;;;;4963122;28;20496;-80
2023/12/14 02:00:25;;;;;;;18.58;6.47;;;-8.50;99.00;;;;;;4951270;28;20034;-80
2023/12/14 02:02:51;;;;;;;24.30;6.43;;;-8.50;99.10;;;;;;4970817;28;20039;-79
2023/12/14 02:05:17;;;;;;;29.42;7.93;;;-8.50;99.10;;;;;;4968035;28;20373;-80
2023/12/14 02:07:43;;;;;;;16.98;6.97;;;-8.50;99.10;;;;;;4959033;28;20066;-81
2023/12/14 02:10:09;;;;;;;10.75;3.63;;;-8.50;99.10;;;;;;4960538;28;20107;-79
2023/12/14 02:12:35;;;;;;;22.95;8.80;;;-8.60;99.10;;;;;;4959422;28;20046;-80
2023/12/14 02:15:01;;;;;;;21.83;5.82;;;-8.60;99.00;;;;;;4954961;28;20023;-80
2023/12/14 02:17:26;;;;;;;28.13;6.55;;;-8.50;99.10;;;;;;4943746;28;20473;-80
2023/12/14 02:19:52;;;;;;;33.83;7.35;;;-8.60;99.00;;;;;;4966461;28;20477;-79
2023/12/14 02:22:19;;;;;;;13.00;5.55;;;-8.60;98.90;;;;;;4955506;29;20491;-79
2023/12/14 02:24:45;;;;;;;27.50;6.38;;;-8.50;98.90;;;;;;4964616;28;20031;-80
2023/12/14 02:27:10;;;;;;;32.17;6.40;;;-8.50;98.90;;;;;;4972144;28;20026;-78
2023/12/14 02:29:36;;;;;;;16.10;5.45;;;-8.50;98.90;;;;;;4967586;28;20491;-78
2023/12/14 02:32:02;;;;;;;28.50;7.30;;;-8.50;98.90;;;;;;4955322;28;20061;-78
2023/12/14 02:34:28;;;;;;;43.53;11.45;;;-8.50;98.80;;;;;;4955741;28;20385;-76
2023/12/14 02:36:54;;;;;;;22.67;6.15;;;-8.50;98.80;;;;;;4955515;28;20031;-78
2023/12/14 02:39:19;;;;;;;25.27;6.82;;;-8.50;98.80;;;;;;4955922;28;20044;-79
2023/12/14 02:41:45;;;;;;;19.60;6.70;;;-8.40;98.80;;;;;;4956320;28;20031;-78
2023/12/14 02:44:11;;;;;;;22.48;7.75;;;-8.50;98.70;;;;;;4939994;28;20027;-79
2023/12/14 02:46:37;;;;;;;22.10;6.53;;;-8.40;98.70;;;;;;4958638;28;20401;-77
2023/12/14 02:49:03;;;;;;;25.75;6.63;;;-8.50;98.60;;;;;;4953862;28;20050;-79
2023/12/14 02:51:29;;;;;;;22.50;7.18;;;-8.50;98.60;;;;;;4960934;28;20035;-78
2023/12/14 02:53:57;;;;;;;23.75;7.50;;;-8.40;98.70;;;;;;4957968;28;20090;-78
2023/12/14 02:56:23;;;;;;;19.92;7.35;;;-8.40;98.60;;;;;;4958271;28;20029;-79
2023/12/14 02:58:51;;;;;;;23.80;6.10;;;-8.40;98.40;;;;;;4949111;29;20019;-78
2023/12/14 03:01:21;;;;;;;21.48;7.25;;;-8.40;98.40;;;;;;4940971;28;20031;-76
2023/12/14 03:03:47;;;;;;;20.45;8.10;;;-8.40;98.40;;;;;;4943043;29;20047;-80
2023/12/14 03:06:13;;;;;;;26.00;5.55;;;-8.40;98.50;;;;;;4964222;28;20031;-78
2023/12/14 03:08:39;;;;;;;30.95;9.98;;;-8.40;98.80;;;;;;4963016;28;20019;-78
2023/12/14 03:11:05;;;;;;;21.92;9.20;;;-8.40;98.50;;;;;;4961662;28;20532;-79
2023/12/14 03:13:30;;;;;;;16.17;5.15;;;-8.50;98.50;;;;;;4945363;28;20170;-77
2023/12/14 03:15:56;;;;;;;19.15;7.05;;;-8.40;98.60;;;;;;4965552;28;20118;-78
2023/12/14 03:18:22;;;;;;;20.95;6.90;;;-8.40;98.50;;;;;;4963050;28;20425;-79
2023/12/14 03:20:48;;;;;;;25.33;7.47;;;-8.40;98.50;;;;;;4956419;28;20389;-78
2023/12/14 03:23:14;;;;;;;26.20;6.60;;;-8.40;98.40;;;;;;4962244;28;20019;-78
2023/12/14 03:25:40;;;;;;;27.83;7.28;;;-8.40;98.40;;;;;;4945260;29;20031;-79
2023/12/14 03:28:06;;;;;;;26.48;7.65;;;-8.40;98.30;;;;;;4964442;28;20043;-79
2023/12/14 03:30:32;;;;;;;15.43;5.32;;;-8.40;98.40;;;;;;4952100;28;20126;-78
2023/12/14 03:32:58;;;;;;;23.10;6.22;;;-8.40;98.20;;;;;;4939166;29;20162;-78
2023/12/14 03:35:23;;;;;;;19.20;5.88;;;-8.40;98.30;;;;;;4954696;28;20451;-78
2023/12/14 03:37:49;;;;;;;22.83;7.45;;;-8.40;98.10;;;;;;4953871;28;20154;-79
2023/12/14 03:40:15;;;;;;;22.73;7.75;;;-8.40;97.90;;;;;;4954649;28;20098;-80
2023/12/14 03:42:41;;;;;;;23.08;6.68;;;-8.40;97.80;;;;;;4954500;28;20034;-78
2023/12/14 03:45:07;;;;;;;31.98;6.55;;;-8.40;97.70;;;;;;4954027;28;20036;-79
2023/12/14 03:47:33;;;;;;;23.10;5.97;;;-8.40;97.60;;;;;;4954249;28;20027;-79
2023/12/14 03:49:59;;;;;;;22.73;6.95;;;-8.40;97.70;;;;;;4954896;28;20031;-78
2023/12/14 03:52:25;;;;;;;31.92;7.88;;;-8.30;97.90;;;;;;4954871;28;20035;-78
2023/12/14 03:54:51;;;;;;;21.43;7.50;;;-8.30;98.00;;;;;;4939856;28;20023;-79
2023/12/14 03:57:18;;;;;;;21.20;8.05;;;-8.30;98.10;;;;;;4955829;28;20098;-79
2023/12/14 03:59:44;;;;;;;26.02;7.20;;;-8.30;98.20;;;;;;4950190;28;20023;-78
2023/12/14 04:02:10;;;;;;;20.25;6.00;;;-8.30;98.00;;;;;;4960456;28;20066;-78
2023/12/14 04:04:36;;;;;;;25.70;9.20;;;-8.30;98.10;;;;;;4960846;28;20493;-78
2023/12/14 04:07:02;;;;;;;20.90;8.30;;;-8.30;98.00;;;;;;4945141;29;20452;-78
2023/12/14 04:09:28;;;;;;;18.10;5.32;;;-8.30;98.10;;;;;;4961777;28;20027;-79
2023/12/14 04:11:54;;;;;;;17.63;6.40;;;-8.30;98.20;;;;;;4960394;28;20031;-78
2023/12/14 04:14:19;;;;;;;30.40;7.60;;;-8.30;98.30;;;;;;4961485;28;20015;-78
2023/12/14 04:16:45;;;;;;;30.85;7.22;;;-8.30;98.20;;;;;;4963180;28;20050;-80
2023/12/14 04:19:11;;;;;;;23.83;7.28;;;-8.30;98.30;;;;;;4962465;28;20016;-79
2023/12/14 04:21:37;;;;;;;18.27;5.20;;;-8.30;98.50;;;;;;4960898;28;20049;-80
2023/12/14 04:24:03;;;;;;;21.13;6.72;;;-8.30;98.60;;;;;;4947237;29;20020;-78
2023/12/14 04:26:29;;;;;;;23.35;6.03;;;-8.40;98.80;;;;;;4949330;28;20570;-79
2023/12/14 04:28:55;;;;;;;20.98;6.28;;;-8.40;98.90;;;;;;4967917;28;20027;-78
2023/12/14 04:31:21;;;;;;;25.35;7.80;;;-8.50;99.20;;;;;;4958797;28;20078;-79
2023/12/14 04:33:47;;;;;;;20.52;7.20;;;-8.50;99.10;;;;;;4959349;28;20038;-79
2023/12/14 04:36:13;;;;;;;33.90;13.02;;;-8.50;99.10;;;;;;4940459;28;20027;-78
2023/12/14 04:38:39;;;;;;;24.90;6.97;;;-8.50;99.10;;;;;;4956859;28;20086;-79
2023/12/14 04:41:05;;;;;;;22.08;6.97;;;-8.50;99.20;;;;;;4956004;28;20031;-80
2023/12/14 04:43:32;;;;;;;17.65;5.55;;;-8.50;99.30;;;;;;4939205;29;20457;-80
2023/12/14 04:45:58;;;;;;;22.83;6.18;;;-8.50;99.30;;;;;;4956844;28;20162;-80
2023/12/14 04:48:23;;;;;;;25.75;6.28;;;-8.50;99.40;;;;;;4955795;28;20106;-79
2023/12/14 04:50:49;;;;;;;26.83;8.07;;;-8.50;99.30;;;;;;4956070;28;20031;-79
2023/12/14 04:53:15;;;;;;;21.52;6.78;;;-8.60;99.40;;;;;;4957464;28;20044;-78
2023/12/14 04:55:41;;;;;;;33.83;6.13;;;-8.60;99.50;;;;;;4957871;28;20404;-79
2023/12/14 04:58:07;;;;;;;26.63;7.32;;;-8.60;99.50;;;;;;4958418;28;20460;-80
2023/12/14 05:00:32;;;;;;;29.75;6.72;;;-8.50;99.60;;;;;;4955617;28;20023;-78
2023/12/14 05:02:58;;;;;;;19.05;4.57;;;-8.60;99.60;;;;;;4961387;28;20043;-77
2023/12/14 05:05:24;;;;;;;17.35;5.97;;;-8.60;99.70;;;;;;4948951;28;20150;-80
2023/12/14 05:07:50;;;;;;;28.90;7.07;;;-8.60;99.70;;;;;;4936330;29;20098;-82
2023/12/14 05:10:16;;;;;;;22.43;4.37;;;-8.60;99.80;;;;;;4939580;29;20504;-78
2023/12/14 05:12:42;;;;;;;30.38;8.70;;;-8.60;99.70;;;;;;4935550;29;20349;-78
2023/12/14 05:15:09;;;;;;;30.88;7.47;;;-8.60;99.60;;;;;;4942701;29;20448;-78
2023/12/14 05:17:36;;;;;;;19.27;4.63;;;-8.60;99.50;;;;;;4938936;29;20031;-78
2023/12/14 05:20:08;;;;;;;18.48;6.07;;;-8.60;99.60;;;;;;4940378;29;20030;-78
2023/12/14 05:22:34;;;;;;;22.90;4.60;;;-8.60;99.60;;;;;;4931725;29;20028;-79
2023/12/14 05:24:59;;;;;;;29.33;7.10;;;-8.60;99.50;;;;;;4941262;29;20020;-79
2023/12/14 05:27:25;;;;;;;26.08;6.80;;;-8.60;99.50;;;;;;4938677;29;20027;-79
2023/12/14 05:29:52;;;;;;;24.88;6.03;;;-8.50;99.60;;;;;;4936976;29;20030;-80
2023/12/14 05:32:17;;;;;;;37.33;7.75;;;-8.50;99.70;;;;;;4941597;29;20039;-79
2023/12/14 05:34:43;;;;;;;22.42;6.25;;;-8.50;99.70;;;;;;4938876;29;20378;-79
2023/12/14 05:37:09;;;;;;;23.13;6.30;;;-8.60;99.80;;;;;;4942812;29;20028;-77
2023/12/14 05:39:35;;;;;;;12.07;4.47;;;-8.60;99.70;;;;;;4943564;29;20115;-79
2023/12/14 05:42:01;;;;;;;18.08;6.78;;;-8.60;99.80;;;;;;4943074;29;20028;-79
2023/12/14 05:44:26;;;;;;;27.95;5.80;;;-8.60;99.80;;;;;;4947700;28;20047;-79
2023/12/14 05:46:52;;;;;;;20.92;6.28;;;-8.60;99.90;;;;;;4942466;29;20024;-79
2023/12/14 05:49:18;;;;;;;31.27;7.78;;;-8.70;99.90;;;;;;4944084;29;20042;-80
2023/12/14 05:51:44;;;;;;;29.20;6.55;;;-8.60;99.90;;;;;;4946272;28;20028;-78
2023/12/14 05:54:10;;;;;;;14.02;4.22;;;-8.60;99.90;;;;;;4931461;29;20453;-79
2023/12/14 05:56:36;;;;;;;26.60;6.25;;;-8.60;99.90;;;;;;4942413;28;20032;-79
2023/12/14 05:59:01;;;;;;;34.55;8.45;;;-8.60;99.90;;;;;;4951344;29;20054;-81
2023/12/14 06:01:27;;;;;;;24.85;6.80;;;-8.60;99.90;;;;;;4952170;28;20035;-79
2023/12/14 06:03:53;;;;;;;22.42;8.63;;;-8.50;99.90;;;;;;4962502;28;20039;-78
2023/12/14 06:06:19;;;;;;;30.38;7.63;;;-8.50;99.80;;;;;;4972700;28;20061;-79
2023/12/14 06:08:45;;;;;;;19.05;6.25;;;-8.50;99.60;;;;;;4958974;28;20019;-78
2023/12/14 06:11:11;;;;;;;30.13;7.85;;;-8.50;99.50;;;;;;4972704;28;20065;-80
2023/12/14 06:13:37;;;;;;;28.13;6.72;;;-8.40;99.50;;;;;;4971074;28;20062;-80
2023/12/14 06:16:04;;;;;;;25.25;6.25;;;-8.40;99.50;;;;;;4962453;28;20023;-80
2023/12/14 06:18:31;;;;;;;18.02;4.88;;;-8.40;99.50;;;;;;4955688;28;20030;-80
2023/12/14 06:20:57;;;;;;;20.02;5.13;;;-8.40;99.40;;;;;;4954988;29;20555;-80
2023/12/14 06:23:23;;;;;;;38.92;9.43;;;-8.30;99.50;;;;;;4954300;28;20062;-79
2023/12/14 06:25:49;;;;;;;26.77;7.78;;;-8.30;99.40;;;;;;4955914;28;20031;-78
2023/12/14 06:28:14;;;;;;;22.73;6.43;;;-8.30;99.00;;;;;;4956935;28;20019;-79
2023/12/14 06:30:41;;;;;;;15.88;5.78;;;-8.30;98.80;;;;;;4939657;29;20040;-79
2023/12/14 06:33:06;;;;;;;29.90;8.02;;;-8.30;98.90;;;;;;4957434;28;20022;-78
2023/12/14 06:35:32;;;;;;;27.75;6.93;;;-8.30;99.00;;;;;;4955135;28;20615;-80
2023/12/14 06:37:58;;;;;;;24.80;8.02;;;-8.20;99.00;;;;;;4956849;28;20397;-80
2023/12/14 06:40:24;;;;;;;28.80;8.15;;;-8.20;98.80;;;;;;4956809;28;20385;-82
2023/12/14 06:42:50;;;;;;;29.05;7.97;;;-8.20;98.80;;;;;;4957419;28;20477;-80
2023/12/14 06:45:16;;;;;;;14.98;5.38;;;-8.20;98.60;;;;;;4953270;28;20477;-82
2023/12/14 06:47:43;;;;;;;26.45;10.55;;;-8.10;98.70;;;;;;4937088;29;20023;-82
2023/12/14 06:50:09;;;;;;;22.80;7.10;;;-8.10;98.70;;;;;;4954721;28;20027;-83
2023/12/14 06:52:35;;;;;;;36.28;10.02;;;-8.00;98.80;;;;;;4970879;28;20050;-84
2023/12/14 06:55:01;;;;;;;26.80;7.57;;;-8.00;98.80;;;;;;4953142;28;20027;-83
2023/12/14 06:57:28;;;;;;;15.60;6.15;;;-8.00;98.70;;;;;;4944200;29;20032;-82
2023/12/14 06:59:54;;;;;;;;;;;-8.00;98.80;;;;;;4955501;29;20556;-81
2023/12/14 07:02:20;;;;;;;18.90;6.27;;;-8.00;98.60;;;;;;4955032;28;19993;-82
2023/12/14 07:04:46;;;;;;;35.85;7.55;;;-8.00;98.40;;;;;;4958653;28;20053;-81
2023/12/14 07:07:12;;;;;;;27.05;6.97;;;-8.00;98.50;;;;;;4937204;28;20443;-83
2023/12/14 07:09:39;;;;;;;34.53;6.78;;;-8.00;98.60;;;;;;4954100;28;20110;-81
2023/12/14 07:12:05;;;;;;;22.50;5.43;;;-8.00;98.50;;;;;;4935643;28;20484;-81
2023/12/14 07:14:31;;;;;;;36.63;7.28;;;-8.10;98.40;;;;;;4954390;28;20444;-82
2023/12/14 07:16:56;;;;;;;32.60;8.23;;;-8.10;98.40;;;;;;4954314;29;20114;-82
2023/12/14 07:19:22;;;;;;;23.98;6.47;;;-8.10;98.40;;;;;;4949581;28;20050;-80
2023/12/14 07:21:48;;;;;;;32.00;6.72;;;-8.10;98.30;;;;;;4948006;29;20031;-81
2023/12/14 07:24:14;;;;;;;26.42;6.18;;;-8.10;98.30;;;;;;4936455;29;20024;-82
2023/12/14 07:26:40;;;;;;;24.95;8.07;;;-8.00;98.40;;;;;;4952869;28;20106;-80
2023/12/14 07:29:05;;;;;;;26.27;7.03;;;-8.00;98.50;;;;;;4954854;28;20106;-80
2023/12/14 07:31:33;;;;;;;26.52;8.70;;;-8.00;98.70;;;;;;4960251;28;20038;-83
2023/12/14 07:33:59;;;;;;;13.07;6.22;;;-8.10;98.80;;;;;;4979671;28;20070;-82
2023/12/14 07:36:25;;;;;;;20.42;5.95;;;-8.10;98.80;;;;;;4975578;28;20038;-82
2023/12/14 07:38:51;;;;;;;21.77;5.95;;;-8.10;98.80;;;;;;4977271;28;20441;-81
2023/12/14 07:41:17;;;;;;;19.67;7.03;;;-8.20;98.80;;;;;;4977895;28;20027;-82
2023/12/14 07:43:43;;;;;;;28.55;7.95;;;-8.20;99.00;;;;;;4974985;28;20488;-81
2023/12/14 07:46:09;;;;;;;31.33;6.40;;;-8.20;99.00;;;;;;4968634;28;20058;-81
2023/12/14 07:48:34;;;;;;;27.23;7.80;;;-8.10;98.90;;;;;;4972270;28;20054;-83
2023/12/14 07:51:00;;;;;;;25.55;6.07;;;-8.10;99.00;;;;;;4977245;28;20034;-81
2023/12/14 07:53:26;;;;;;;29.60;7.65;;;-8.10;99.00;;;;;;4977346;28;20436;-82
2023/12/14 07:55:52;;;;;;;20.58;8.60;;;-8.10;99.00;;;;;;4967275;28;20039;-82
2023/12/14 07:58:18;;;;;;;25.05;7.43;;;-8.10;99.00;;;;;;4973453;28;20022;-82
2023/12/14 08:00:44;;;;;;;28.40;7.78;;;-8.10;98.90;;;;;;4960841;28;20102;-84
2023/12/14 08:03:09;;;;;;;29.95;7.90;;;-8.00;98.90;;;;;;4967325;28;20330;-83
2023/12/14 08:05:35;;;;;;;31.25;7.45;;;-8.00;98.90;;;;;;4946678;28;20022;-83
2023/12/14 08:08:01;;;;;;;36.25;7.35;;;-8.00;98.80;;;;;;4947911;29;20077;-81
2023/12/14 08:10:27;;;;;;;27.60;7.63;;;-8.00;98.70;;;;;;4958323;28;20058;-82
2023/12/14 08:12:53;;;;;;;21.83;6.93;;;-8.00;98.60;;;;;;4970244;28;20030;-81
2023/12/14 08:15:19;;;;;;;24.15;7.70;;;-8.00;98.20;;;;;;4972504;28;20030;-82
2023/12/14 08:17:44;;;;;;;37.08;7.30;;;-7.90;98.10;;;;;;4938792;29;20027;-81
2023/12/14 08:20:12;;;;;;;26.00;7.38;;;-7.90;98.00;;;;;;4971993;28;20027;-82
2023/12/14 08:22:43;;;;;;;32.47;6.75;;;-7.90;98.00;;;;;;4952240;28;20027;-82
2023/12/14 08:25:14;;;;;;;31.00;8.40;;;-7.80;98.00;;;;;;4962434;28;20031;-81
2023/12/14 08:27:40;;;;;;;35.25;11.75;;;-7.80;98.10;;;;;;4962179;28;20484;-81
2023/12/14 08:30:07;;;;;;;33.55;7.45;;;-7.80;98.10;;;;;;4969740;28;20082;-81
2023/12/14 08:32:33;;;;;;;26.25;7.22;;;-7.80;98.20;;;;;;4972658;28;20034;-82
2023/12/14 08:34:58;;;;;;;19.85;7.40;;;-7.80;98.20;;;;;;4977251;28;20434;-82
2023/12/14 08:37:24;;;;;;;20.85;7.80;;;-7.80;98.10;;;;;;4974686;28;20078;-82
2023/12/14 08:39:50;;;;;;;28.98;7.63;;;-7.70;98.20;;;;;;4983026;28;20018;-81
2023/12/14 08:42:16;;;;;;;25.13;8.48;;;-7.70;98.20;;;;;;4963052;28;20023;-82
2023/12/14 08:44:42;;;;;;;23.23;6.47;;;-7.70;98.40;;;;;;4959385;28;20038;-81
2023/12/14 08:47:08;;;;;;;24.67;8.43;;;-7.70;98.50;;;;;;4957960;28;20027;-83
2023/12/14 08:49:35;;;;;;;23.50;6.95;;;-7.70;98.60;;;;;;4970723;28;20479;-81
2023/12/14 08:52:01;;;;;;;23.27;7.40;;;-7.70;98.70;;;;;;4970737;28;20177;-82
2023/12/14 08:54:27;;;;;;;23.52;6.32;;;-7.80;98.60;;;;;;4958582;28;20542;-80
2023/12/14 08:56:53;;;;;;;26.90;8.50;;;-7.80;98.60;;;;;;4969350;28;20102;-81
2023/12/14 08:59:21;;;;;;;17.00;6.38;;;-7.80;98.40;;;;;;4962148;28;20376;-81
2023/12/14 09:01:47;;;;;;;25.42;7.05;;;-7.70;98.50;;;;;;4976222;28;20033;-81
2023/12/14 09:04:13;;;;;;;28.63;6.20;;;-7.70;98.40;;;;;;4975250;28;20039;-83
2023/12/14 09:06:42;;;;;;;29.77;8.38;;;-7.70;98.40;;;;;;4960459;28;20019;-82
2023/12/14 09:09:08;;;;;;;33.08;8.10;;;-7.70;98.20;;;;;;4963413;28;20480;-83
2023/12/14 09:11:36;;;;;;;32.83;8.40;;;-7.70;98.00;;;;;;4949992;29;20043;-83
2023/12/14 09:14:02;;;;;;;22.98;6.65;;;-7.70;98.00;;;;;;4958113;28;20019;-80
2023/12/14 09:16:28;;;;;;;27.33;7.70;;;-7.70;98.20;;;;;;4975882;28;20019;-82
2023/12/14 09:18:54;;;;;;;26.17;6.50;;;-7.70;98.30;;;;;;4977057;28;20027;-82
2023/12/14 09:21:20;;;;;;;26.58;6.63;;;-7.60;98.40;;;;;;4975338;28;20019;-81
2023/12/14 09:23:46;;;;;;;23.20;7.07;;;-7.60;98.40;;;;;;4975544;28;20105;-79
2023/12/14 09:26:12;;;;;;;40.92;10.18;;;-7.60;98.30;;;;;;4964196;28;20151;-82
2023/12/14 09:28:37;;;;;;;30.65;8.20;;;-7.60;98.10;;;;;;4975641;28;20027;-82
2023/12/14 09:31:03;;;;;;;33.85;8.10;;;-7.60;97.90;;;;;;4953905;28;20441;-82
2023/12/14 09:33:30;;;;;;;19.92;6.07;;;-7.60;98.00;;;;;;4957699;28;20027;-81
2023/12/14 09:35:56;;;;;;;32.10;9.52;;;-7.50;98.10;;;;;;4957072;28;20058;-81
2023/12/14 09:38:22;;;;;;;23.00;8.95;;;-7.50;98.20;;;;;;4974987;28;20029;-81
2023/12/14 09:40:48;;;;;;;27.60;7.82;;;-7.50;98.10;;;;;;4975135;28;20444;-83
2023/12/14 09:43:14;;;;;;;36.30;8.73;;;-7.50;98.00;;;;;;4944090;28;20113;-81
2023/12/14 09:45:44;;;;;;;24.30;8.53;;;-7.50;98.10;;;;;;4957753;28;20046;-82
2023/12/14 09:48:11;;;;;;;21.83;6.53;;;-7.50;98.00;;;;;;4952714;28;20363;-82
2023/12/14 09:50:40;;;;;;;39.75;10.77;;;-7.50;98.00;;;;;;4974802;28;20031;-83
2023/12/14 09:53:07;;;;;;;34.60;8.55;;;-7.50;97.90;;;;;;4957592;28;20090;-82
2023/12/14 09:55:33;;;;;;;23.05;7.65;;;-7.40;98.00;;;;;;4961282;28;20490;-82
2023/12/14 09:58:02;;;;;;;29.70;7.18;;;-7.40;98.20;;;;;;4937994;29;20174;-82
2023/12/14 10:00:36;;;;;;;17.45;8.02;;;-7.40;98.20;;;;;;4931611;28;20037;-80
2023/12/14 10:03:23;;;;;;;23.38;7.57;;;-7.40;98.30;;;;;;4975959;28;20053;-81
2023/12/14 10:05:49;;;;;;;25.30;8.32;;;-7.40;98.20;;;;;;4957389;28;20109;-82
2023/12/14 10:08:19;;;;;;;34.40;8.02;;;-7.40;98.10;;;;;;4956835;28;20026;-80
2023/12/14 10:10:52;;;;;;;30.95;7.78;;;-7.30;98.30;;;;;;4974195;28;20460;-82
2023/12/14 10:13:19;;;;;;;36.58;8.80;;;-7.30;98.40;;;;;;4975164;28;20035;-81
2023/12/14 10:15:46;;;;;;;23.77;6.00;;;-7.30;97.90;;;;;;4971228;28;20019;-83
2023/12/14 10:18:26;;;;;;;22.00;6.43;;;-7.30;98.00;;;;;;4967304;28;20117;-82
2023/12/14 10:20:53;;;;;;;28.92;8.50;;;-7.30;97.80;;;;;;4968727;28;20023;-81
2023/12/14 10:23:19;;;;;;;24.23;7.57;;;-7.20;97.90;;;;;;4966795;28;20167;-84
2023/12/14 10:25:46;;;;;;;22.80;5.72;;;-7.20;97.90;;;;;;4974472;28;20030;-82
2023/12/14 10:28:15;;;;;;;7.45;3.25;;;-7.20;97.80;;;;;;4974658;28;20528;-81
2023/12/14 10:30:43;;;;;;;29.40;8.63;;;-7.20;97.80;;;;;;4944465;29;20038;-81
2023/12/14 10:33:09;;;;;;;36.42;8.30;;;-7.20;97.80;;;;;;4973299;28;20030;-81
2023/12/14 10:35:36;;;;;;;26.88;7.47;;;-7.20;97.70;;;;;;4944960;28;20393;-82
2023/12/14 10:38:05;;;;;;;22.60;6.25;;;-7.20;97.80;;;;;;4955495;28;20377;-82
2023/12/14 10:40:32;;;;;;;28.70;6.70;;;-7.20;97.90;;;;;;4956387;28;20100;-82
2023/12/14 10:43:03;;;;;;;44.67;10.45;;;-7.20;97.80;;;;;;4956445;28;20027;-81
2023/12/14 10:45:32;;;;;;;27.13;9.15;;;-7.20;97.60;;;;;;4973715;28;20038;-81
2023/12/14 10:48:00;;;;;;;26.33;9.13;;;-7.20;97.60;;;;;;4968502;28;20026;-81
2023/12/14 10:50:29;;;;;;;38.72;8.02;;;-7.20;97.50;;;;;;4965057;28;20042;-82
2023/12/14 10:52:57;;;;;;;45.83;8.70;;;-7.20;97.50;;;;;;4973543;28;20112;-82
2023/12/14 10:55:44;;;;;;;30.38;9.35;;;-7.20;97.30;;;;;;4956550;28;20055;-82
2023/12/14 10:58:11;;;;;;;25.77;8.57;;;-7.20;97.20;;;;;;4973365;28;20162;-83
2023/12/14 11:00:38;;;;;;;23.08;9.32;;;-7.20;97.30;;;;;;4956474;28;20508;-82
2023/12/14 11:03:06;;;;;;;23.45;8.27;;;-7.10;97.20;;;;;;4974279;28;20126;-83
2023/12/14 11:05:36;;;;;;;27.80;8.77;;;-7.10;97.00;;;;;;4971773;28;20057;-83
2023/12/14 11:08:09;;;;;;;16.67;5.97;;;-7.10;96.80;;;;;;4953830;29;20027;-81
2023/12/14 11:10:41;;;;;;;25.25;9.50;;;-7.10;96.50;;;;;;4955443;28;20507;-81
2023/12/14 11:13:13;;;;;;;18.90;7.30;;;-7.10;96.30;;;;;;4950521;28;20165;-81
2023/12/14 11:15:40;;;;;;;29.15;10.13;;;-7.10;96.20;;;;;;4958358;28;20029;-83
2023/12/14 11:18:12;;;;;;;;;;;-7.10;95.90;;;;;;4974214;28;20026;-82
2023/12/14 11:20:51;;;;;;;29.92;8.20;;;-7.10;96.10;;;;;;4946972;28;19996;-82
2023/12/14 11:23:26;;;;;;;22.90;8.77;;;-7.10;96.10;;;;;;4967686;28;20792;-83
2023/12/14 11:25:54;;;;;;;35.95;8.68;;;-7.10;96.20;;;;;;4966415;28;20118;-81
2023/12/14 11:28:20;;;;;;;32.05;7.38;;;-7.10;96.20;;;;;;4963894;28;20420;-83
2023/12/14 11:30:49;;;;;;;35.08;7.10;;;-7.00;96.20;;;;;;4967599;28;20090;-81
2023/12/14 11:33:16;;;;;;;27.60;7.25;;;-7.00;96.40;;;;;;4958350;29;20082;-81
2023/12/14 11:35:42;;;;;;;36.45;9.52;;;-7.00;96.40;;;;;;4951571;28;20050;-82
2023/12/14 11:38:12;;;;;;;22.10;8.05;;;-7.00;96.60;;;;;;4958451;28;20559;-82
2023/12/14 11:40:42;;;;;;;27.00;8.82;;;-7.00;96.60;;;;;;4967828;28;20457;-80
2023/12/14 11:43:09;;;;;;;30.40;7.80;;;-7.00;96.70;;;;;;4957210;28;20023;-83
2023/12/14 11:45:36;;;;;;;28.83;7.82;;;-7.00;96.50;;;;;;4974704;28;20031;-82
2023/12/14 11:48:05;;;;;;;22.08;7.10;;;-7.10;96.40;;;;;;4959920;28;20082;-81
2023/12/14 11:50:34;;;;;;;19.67;6.97;;;-7.10;96.60;;;;;;4973658;28;20077;-81
2023/12/14 11:53:04;;;;;;;28.73;9.88;;;-7.10;96.80;;;;;;4973751;28;20026;-81
2023/12/14 11:55:31;;;;;;;31.00;9.88;;;-7.10;96.80;;;;;;4966273;28;20155;-82
2023/12/14 11:57:58;;;;;;;23.27;8.15;;;-7.10;96.60;;;;;;4974839;28;20033;-81
2023/12/14 12:00:26;;;;;;;20.90;7.22;;;-7.10;96.40;;;;;;4956084;28;20552;-81
2023/12/14 12:02:52;;;;;;;24.92;12.23;;;-7.00;96.50;;;;;;4972935;28;20062;-82
2023/12/14 12:05:20;;;;;;;23.88;8.10;;;-7.00;96.70;;;;;;4971133;28;20031;-82
2023/12/14 12:07:46;;;;;;;24.00;8.38;;;-7.00;96.70;;;;;;4964602;28;20093;-82
2023/12/14 12:10:12;;;;;;;29.40;8.23;;;-7.10;96.40;;;;;;4977293;28;20043;-83
2023/12/14 12:12:38;;;;;;;21.73;8.27;;;-7.10;96.30;;;;;;4970222;28;20125;-82
2023/12/14 12:15:05;;;;;;;28.63;10.00;;;-7.10;96.20;;;;;;4970646;28;20098;-81
2023/12/14 12:17:37;;;;;;;22.70;7.72;;;-7.10;96.30;;;;;;4973728;28;20031;-83
2023/12/14 12:20:04;;;;;;;24.25;7.18;;;-7.10;96.30;;;;;;4973255;28;20123;-82
2023/12/14 12:22:30;;;;;;;44.85;8.70;;;-7.00;96.70;;;;;;4957592;28;20029;-82
2023/12/14 12:24:56;;;;;;;26.23;6.68;;;-7.10;96.60;;;;;;4976790;28;20035;-82
2023/12/14 12:27:22;;;;;;;32.13;8.45;;;-7.10;96.20;;;;;;4976542;28;20054;-81
2023/12/14 12:29:50;;;;;;;28.80;10.70;;;-7.10;96.20;;;;;;4959371;28;20376;-83
2023/12/14 12:32:16;;;;;;;25.42;9.30;;;-7.10;96.30;;;;;;4968547;28;20107;-82
2023/12/14 12:34:41;;;;;;;23.00;8.30;;;-7.10;96.40;;;;;;4959511;28;20019;-82